Pastebin launched a little side project called VERYVIRAL.com, check it out ;-) Want more features on Pastebin? Sign Up, it's FREE!
Guest

XBMC Dharma-PVR debuglog

By: a guest on Jan 18th, 2011  |  syntax: None  |  size: 34.09 KB  |  views: 192  |  expires: Never
download  |  raw  |  embed  |  report abuse  |  print
Text below is selected. Please press Ctrl+C to copy to your clipboard. (⌘+C on Mac)
  1. 08:14:58 T:4856 M:2989080576  NOTICE: -----------------------------------------------------------------------
  2. 08:14:58 T:4856 M:2988949504  NOTICE: Starting XBMC, Platform: Windows 7, 64-bit (WoW) build 7600. Built on Dec 18 2010 (SVN:35647, compiler 1500)
  3. 08:14:58 T:4856 M:2988949504  NOTICE: Intel(R) Core(TM)2 Duo CPU     T9400  @ 2.53GHz
  4. 08:14:58 T:4856 M:2988949504  NOTICE: Desktop Resolution: 1920x1200 32Bit at 59Hz
  5. 08:14:58 T:4856 M:2988949504  NOTICE: Running with restricted rights
  6. 08:14:58 T:4856 M:2988949504  NOTICE: special://xbmc/ is mapped to: C:\Program Files (x86)\XBMC
  7. 08:14:58 T:4856 M:2988949504  NOTICE: special://xbmcbin/ is mapped to: C:\Program Files (x86)\XBMC
  8. 08:14:58 T:4856 M:2988949504  NOTICE: special://masterprofile/ is mapped to: C:\Users\idserda\AppData\Roaming\XBMC\userdata
  9. 08:14:58 T:4856 M:2988949504  NOTICE: special://home/ is mapped to: C:\Users\idserda\AppData\Roaming\XBMC
  10. 08:14:58 T:4856 M:2988949504  NOTICE: special://temp/ is mapped to: C:\Users\idserda\AppData\Roaming\XBMC\cache
  11. 08:14:58 T:4856 M:2988949504  NOTICE: The executable running is: C:\Program Files (x86)\XBMC\xbmc.exe
  12. 08:14:58 T:4856 M:2988949504  NOTICE: Log File is located: C:\Users\idserda\AppData\Roaming\XBMC\xbmc.log
  13. 08:14:58 T:4856 M:2988949504  NOTICE: -----------------------------------------------------------------------
  14. 08:14:58 T:4856 M:2988883968  NOTICE: Setup SDL
  15. 08:14:59 T:4856 M:2988511232  NOTICE: Found screen: Generic PnP Monitor on NVIDIA Quadro NVS 160M , adapter 0.
  16. 08:14:59 T:4856 M:2988511232  NOTICE: Primary mode: 1920x1200 @ 59.94 - Full Screen
  17. 08:14:59 T:4856 M:2987909120  NOTICE: Additional mode: 640x480 @ 59.94 - Full Screen
  18. 08:14:59 T:4856 M:2987933696  NOTICE: Additional mode: 640x480 @ 60.00 - Full Screen
  19. 08:14:59 T:4856 M:2987933696  NOTICE: Additional mode: 640x480 @ 59.94 - Full Screen
  20. 08:14:59 T:4856 M:2987950080  NOTICE: Additional mode: 640x480 @ 60.00 - Full Screen
  21. 08:14:59 T:4856 M:2987925504  NOTICE: Additional mode: 640x480 @ 59.94 - Full Screen
  22. 08:14:59 T:4856 M:2987962368  NOTICE: Additional mode: 640x480 @ 60.00 - Full Screen
  23. 08:14:59 T:4856 M:2987859968  NOTICE: Additional mode: 640x480 @ 40.00 - Full Screen
  24. 08:14:59 T:4856 M:2988044288  NOTICE: Previous line repeats 2 times.
  25. 08:14:59 T:4856 M:2988044288  NOTICE: Additional mode: 720x480 @ 59.94 - Full Screen
  26. 08:14:59 T:4856 M:2988097536  NOTICE: Additional mode: 720x480 @ 60.00 - Full Screen
  27. 08:14:59 T:4856 M:2988167168  NOTICE: Additional mode: 720x480 @ 59.94 - Full Screen
  28. 08:14:59 T:4856 M:2988007424  NOTICE: Additional mode: 720x480 @ 60.00 - Full Screen
  29. 08:14:59 T:4856 M:2987917312  NOTICE: Additional mode: 720x480 @ 59.94 - Full Screen
  30. 08:14:59 T:4856 M:2987986944  NOTICE: Additional mode: 720x480 @ 60.00 - Full Screen
  31. 08:14:59 T:4856 M:2987855872  NOTICE: Additional mode: 720x480 @ 40.00 - Full Screen
  32. 08:14:59 T:4856 M:2988064768  NOTICE: Previous line repeats 2 times.
  33. 08:14:59 T:4856 M:2988064768  NOTICE: Additional mode: 720x576 @ 59.94 - Full Screen
  34. 08:14:59 T:4856 M:2988134400  NOTICE: Additional mode: 720x576 @ 60.00 - Full Screen
  35. 08:14:59 T:4856 M:2988204032  NOTICE: Additional mode: 720x576 @ 59.94 - Full Screen
  36. 08:14:59 T:4856 M:2988273664  NOTICE: Additional mode: 720x576 @ 60.00 - Full Screen
  37. 08:14:59 T:4856 M:2988343296  NOTICE: Additional mode: 720x576 @ 59.94 - Full Screen
  38. 08:14:59 T:4856 M:2988150784  NOTICE: Additional mode: 720x576 @ 60.00 - Full Screen
  39. 08:14:59 T:4856 M:2987958272  NOTICE: Additional mode: 720x576 @ 40.00 - Full Screen
  40. 08:14:59 T:4856 M:2987855872  NOTICE: Previous line repeats 2 times.
  41. 08:14:59 T:4856 M:2987855872  NOTICE: Additional mode: 800x600 @ 59.94 - Full Screen
  42. 08:14:59 T:4856 M:2987855872  NOTICE: Additional mode: 800x600 @ 60.00 - Full Screen
  43. 08:14:59 T:4856 M:2987925504  NOTICE: Additional mode: 800x600 @ 59.94 - Full Screen
  44. 08:14:59 T:4856 M:2987925504  NOTICE: Additional mode: 800x600 @ 60.00 - Full Screen
  45. 08:14:59 T:4856 M:2987995136  NOTICE: Additional mode: 800x600 @ 59.94 - Full Screen
  46. 08:14:59 T:4856 M:2987900928  NOTICE: Additional mode: 800x600 @ 60.00 - Full Screen
  47. 08:14:59 T:4856 M:2987855872  NOTICE: Additional mode: 800x600 @ 40.00 - Full Screen
  48. 08:14:59 T:4856 M:2987855872  NOTICE: Previous line repeats 2 times.
  49. 08:14:59 T:4856 M:2987855872  NOTICE: Additional mode: 1024x768 @ 59.94 - Full Screen
  50. 08:14:59 T:4856 M:2987855872  NOTICE: Additional mode: 1024x768 @ 60.00 - Full Screen
  51. 08:14:59 T:4856 M:2987855872  NOTICE: Additional mode: 1024x768 @ 59.94 - Full Screen
  52. 08:14:59 T:4856 M:2987855872  NOTICE: Additional mode: 1024x768 @ 60.00 - Full Screen
  53. 08:14:59 T:4856 M:2987925504  NOTICE: Additional mode: 1024x768 @ 59.94 - Full Screen
  54. 08:14:59 T:4856 M:2987995136  NOTICE: Additional mode: 1024x768 @ 60.00 - Full Screen
  55. 08:14:59 T:4856 M:2988064768  NOTICE: Additional mode: 1024x768 @ 40.00 - Full Screen
  56. 08:14:59 T:4856 M:2988273664  NOTICE: Previous line repeats 2 times.
  57. 08:14:59 T:4856 M:2988273664  NOTICE: Additional mode: 1280x720 @ 59.94 - Full Screen
  58. 08:14:59 T:4856 M:2987954176  NOTICE: Additional mode: 1280x720 @ 60.00 - Full Screen
  59. 08:14:59 T:4856 M:2987925504  NOTICE: Additional mode: 1280x720 @ 59.94 - Full Screen
  60. 08:14:59 T:4856 M:2987892736  NOTICE: Additional mode: 1280x720 @ 60.00 - Full Screen
  61. 08:14:59 T:4856 M:2987855872  NOTICE: Additional mode: 1280x720 @ 59.94 - Full Screen
  62. 08:14:59 T:4856 M:2987855872  NOTICE: Additional mode: 1280x720 @ 60.00 - Full Screen
  63. 08:14:59 T:4856 M:2987925504  NOTICE: Additional mode: 1280x720 @ 40.00 - Full Screen
  64. 08:14:59 T:4856 M:2987855872  NOTICE: Previous line repeats 2 times.
  65. 08:14:59 T:4856 M:2987855872  NOTICE: Additional mode: 1280x800 @ 59.94 - Full Screen
  66. 08:14:59 T:4856 M:2987859968  NOTICE: Additional mode: 1280x800 @ 60.00 - Full Screen
  67. 08:14:59 T:4856 M:2987925504  NOTICE: Additional mode: 1280x800 @ 59.94 - Full Screen
  68. 08:14:59 T:4856 M:2987925504  NOTICE: Additional mode: 1280x800 @ 60.00 - Full Screen
  69. 08:14:59 T:4856 M:2987855872  NOTICE: Additional mode: 1280x800 @ 59.94 - Full Screen
  70. 08:14:59 T:4856 M:2987855872  NOTICE: Additional mode: 1280x800 @ 60.00 - Full Screen
  71. 08:14:59 T:4856 M:2987855872  NOTICE: Additional mode: 1280x800 @ 40.00 - Full Screen
  72. 08:14:59 T:4856 M:2987855872  NOTICE: Previous line repeats 2 times.
  73. 08:14:59 T:4856 M:2987855872  NOTICE: Additional mode: 1280x1024 @ 59.94 - Full Screen
  74. 08:14:59 T:4856 M:2987855872  NOTICE: Additional mode: 1280x1024 @ 60.00 - Full Screen
  75. 08:14:59 T:4856 M:2987925504  NOTICE: Additional mode: 1280x1024 @ 59.94 - Full Screen
  76. 08:14:59 T:4856 M:2987995136  NOTICE: Additional mode: 1280x1024 @ 60.00 - Full Screen
  77. 08:14:59 T:4856 M:2988064768  NOTICE: Additional mode: 1280x1024 @ 59.94 - Full Screen
  78. 08:14:59 T:4856 M:2988134400  NOTICE: Additional mode: 1280x1024 @ 60.00 - Full Screen
  79. 08:14:59 T:4856 M:2988204032  NOTICE: Additional mode: 1280x1024 @ 40.00 - Full Screen
  80. 08:14:59 T:4856 M:2988412928  NOTICE: Previous line repeats 2 times.
  81. 08:14:59 T:4856 M:2988412928  NOTICE: Additional mode: 1440x900 @ 59.94 - Full Screen
  82. 08:14:59 T:4856 M:2988482560  NOTICE: Additional mode: 1440x900 @ 60.00 - Full Screen
  83. 08:14:59 T:4856 M:2988486656  NOTICE: Additional mode: 1440x900 @ 59.94 - Full Screen
  84. 08:14:59 T:4856 M:2988294144  NOTICE: Additional mode: 1440x900 @ 60.00 - Full Screen
  85. 08:14:59 T:4856 M:2988380160  NOTICE: Additional mode: 1440x900 @ 59.94 - Full Screen
  86. 08:14:59 T:4856 M:2988130304  NOTICE: Additional mode: 1440x900 @ 60.00 - Full Screen
  87. 08:14:59 T:4856 M:2987941888  NOTICE: Additional mode: 1440x900 @ 40.00 - Full Screen
  88. 08:14:59 T:4856 M:2987749376  NOTICE: Previous line repeats 2 times.
  89. 08:14:59 T:4856 M:2987749376  NOTICE: Additional mode: 1600x1200 @ 59.94 - Full Screen
  90. 08:14:59 T:4856 M:2987745280  NOTICE: Additional mode: 1600x1200 @ 60.00 - Full Screen
  91. 08:14:59 T:4856 M:2987745280  NOTICE: Additional mode: 1600x1200 @ 59.94 - Full Screen
  92. 08:14:59 T:4856 M:2987745280  NOTICE: Additional mode: 1600x1200 @ 60.00 - Full Screen
  93. 08:14:59 T:4856 M:2987749376  NOTICE: Additional mode: 1600x1200 @ 59.94 - Full Screen
  94. 08:14:59 T:4856 M:2987745280  NOTICE: Additional mode: 1600x1200 @ 60.00 - Full Screen
  95. 08:14:59 T:4856 M:2987745280  NOTICE: Additional mode: 1600x1200 @ 40.00 - Full Screen
  96. 08:14:59 T:4856 M:2987745280  NOTICE: Previous line repeats 2 times.
  97. 08:14:59 T:4856 M:2987745280  NOTICE: Additional mode: 1680x1050 @ 59.94 - Full Screen
  98. 08:14:59 T:4856 M:2987745280  NOTICE: Additional mode: 1680x1050 @ 60.00 - Full Screen
  99. 08:14:59 T:4856 M:2987745280  NOTICE: Additional mode: 1680x1050 @ 59.94 - Full Screen
  100. 08:14:59 T:4856 M:2987745280  NOTICE: Additional mode: 1680x1050 @ 60.00 - Full Screen
  101. 08:14:59 T:4856 M:2987745280  NOTICE: Additional mode: 1680x1050 @ 59.94 - Full Screen
  102. 08:14:59 T:4856 M:2987745280  NOTICE: Additional mode: 1680x1050 @ 60.00 - Full Screen
  103. 08:14:59 T:4856 M:2987745280  NOTICE: Additional mode: 1680x1050 @ 40.00 - Full Screen
  104. 08:14:59 T:4856 M:2987814912  NOTICE: Previous line repeats 2 times.
  105. 08:14:59 T:4856 M:2987814912  NOTICE: Additional mode: 1920x1080 @ 59.94 - Full Screen
  106. 08:14:59 T:4856 M:2987814912  NOTICE: Additional mode: 1920x1080 @ 60.00 - Full Screen
  107. 08:14:59 T:4856 M:2987814912  NOTICE: Additional mode: 1920x1080 @ 59.94 - Full Screen
  108. 08:14:59 T:4856 M:2987814912  NOTICE: Additional mode: 1920x1080 @ 60.00 - Full Screen
  109. 08:14:59 T:4856 M:2987814912  NOTICE: Additional mode: 1920x1080 @ 59.94 - Full Screen
  110. 08:14:59 T:4856 M:2987757568  NOTICE: Additional mode: 1920x1080 @ 60.00 - Full Screen
  111. 08:14:59 T:4856 M:2987745280  NOTICE: Additional mode: 1920x1080 @ 40.00 - Full Screen
  112. 08:14:59 T:4856 M:2987814912  NOTICE: Previous line repeats 2 times.
  113. 08:14:59 T:4856 M:2987814912  NOTICE: Additional mode: 1920x1200 @ 59.94 - Full Screen
  114. 08:14:59 T:4856 M:2987745280  NOTICE: Additional mode: 1920x1200 @ 60.00 - Full Screen
  115. 08:14:59 T:4856 M:2987814912  NOTICE: Additional mode: 1920x1200 @ 40.00 - Full Screen
  116. 08:14:59 T:4856 M:2988019712  NOTICE: load settings...
  117. 08:14:59 T:4856 M:2987769856  NOTICE: special://profile/ is mapped to: special://masterprofile/
  118. 08:14:59 T:4856 M:2987769856  NOTICE: loading special://masterprofile/guisettings.xml
  119. 08:14:59 T:4856 M:2987831296  NOTICE: Getting hardware information now...
  120. 08:14:59 T:4856 M:2987831296  NOTICE: Checking resolution 12
  121. 08:14:59 T:4856 M:2987831296  NOTICE: Loading player core factory settings from special://xbmc/system/playercorefactory.xml.
  122. 08:14:59 T:4856 M:2987237376  NOTICE: Loaded playercorefactory configuration
  123. 08:14:59 T:4856 M:2987237376  NOTICE: Loading player core factory settings from special://masterprofile/playercorefactory.xml.
  124. 08:14:59 T:4856 M:2987237376  NOTICE: special://masterprofile/playercorefactory.xml does not exist. Skipping.
  125. 08:14:59 T:4856 M:2987237376  NOTICE: No advancedsettings.xml to load (special://masterprofile/advancedsettings.xml)
  126. 08:14:59 T:4856 M:2987237376  NOTICE: Default DVD Player: dvdplayer
  127. 08:14:59 T:4856 M:2987237376  NOTICE: Default Video Player: dvdplayer
  128. 08:14:59 T:4856 M:2987237376  NOTICE: Default Audio Player: paplayer
  129. 08:14:59 T:4856 M:2987237376  NOTICE: Enabled debug logging due to GUI setting (2)
  130. 08:14:59 T:4856 M:2987237376  NOTICE: Loading media sources from special://masterprofile/sources.xml
  131. 08:14:59 T:4856 M:2987241472    INFO: creating subdirectories
  132. 08:14:59 T:4856 M:2987241472    INFO: userdata folder: special://masterprofile/
  133. 08:14:59 T:4856 M:2987241472    INFO: recording folder:
  134. 08:14:59 T:4856 M:2987241472    INFO: screenshots folder:
  135. 08:14:59 T:4856 M:2987241472    INFO: thumbnails folder: special://masterprofile/Thumbnails
  136. 08:14:59 T:4856 M:2987241472    INFO: load language info file: special://xbmc/language/English/langinfo.xml
  137. 08:14:59 T:4856 M:2987126784    INFO: load language file:special://xbmc/language/English/strings.xml
  138. 08:14:59 T:4856 M:2986999808   DEBUG: Win32DllLoader::Load(special://xbmcbin/system/cpluff.dll)
  139. 08:14:59 T:4856 M:2986958848   DEBUG: Win32DllLoader::Load(special://xbmcbin/system/libexpat.dll)
  140. 08:14:59 T:4856 M:2987769856   DEBUG: ADDON: cpluff: 'Plug-in metadata.albums.allmusic.com has been installed.'
  141. 08:14:59 T:4856 M:2987769856   DEBUG: ADDON: cpluff: 'Plug-in repository.xbmc.org has been installed.'
  142. 08:14:59 T:4856 M:2987769856   DEBUG: ADDON: cpluff: 'Plug-in pvr.fortherecord.argus has been installed.'
  143. 08:14:59 T:4856 M:2987769856   DEBUG: ADDON: cpluff: 'Plug-in screensaver.xbmc.builtin.black has been installed.'
  144. 08:14:59 T:4856 M:2987769856   DEBUG: ADDON: cpluff: 'Plug-in screensaver.rsxs.euphoria has been installed.'
  145. 08:14:59 T:4856 M:2987769856   DEBUG: ADDON: cpluff: 'Plug-in pvr.vdr.vnsi has been installed.'
  146. 08:14:59 T:4856 M:2987769856   DEBUG: ADDON: cpluff: 'Plug-in pvr.vdr.streamdev has been installed.'
  147. 08:14:59 T:4856 M:2987769856   DEBUG: ADDON: cpluff: 'Plug-in visualization.projectm has been installed.'
  148. 08:14:59 T:4856 M:2987769856   DEBUG: ADDON: cpluff: 'Plug-in screensaver.xbmc.builtin.dim has been installed.'
  149. 08:14:59 T:4856 M:2987769856   DEBUG: ADDON: cpluff: 'Plug-in metadata.artists.allmusic.com has been installed.'
  150. 08:14:59 T:4856 M:2987769856   DEBUG: ADDON: cpluff: 'Plug-in metadata.themoviedb.org has been installed.'
  151. 08:14:59 T:4856 M:2987769856   DEBUG: ADDON: cpluff: 'Plug-in xbmc.metadata has been installed.'
  152. 08:14:59 T:4856 M:2987769856   DEBUG: ADDON: cpluff: 'Plug-in skin.confluence has been installed.'
  153. 08:14:59 T:4856 M:2987769856   DEBUG: ADDON: cpluff: 'Plug-in visualization.glspectrum has been installed.'
  154. 08:14:59 T:4856 M:2987769856   DEBUG: ADDON: cpluff: 'Plug-in xbmc.gui has been installed.'
  155. 08:14:59 T:4856 M:2987769856   DEBUG: ADDON: cpluff: 'Plug-in visualization.milkdrop has been installed.'
  156. 08:14:59 T:4856 M:2987769856   DEBUG: ADDON: cpluff: 'Plug-in script.module.pil has been installed.'
  157. 08:14:59 T:4856 M:2987769856   DEBUG: ADDON: cpluff: 'Plug-in repository.pvr-addons-margro has been installed.'
  158. 08:14:59 T:4856 M:2987769856   DEBUG: ADDON: cpluff: 'Plug-in visualization.dxspectrum has been installed.'
  159. 08:14:59 T:4856 M:2987769856   DEBUG: ADDON: cpluff: 'Plug-in pvr.mythtv has been installed.'
  160. 08:14:59 T:4856 M:2987769856   DEBUG: ADDON: cpluff: 'Plug-in xbmc.core has been installed.'
  161. 08:14:59 T:4856 M:2987769856   DEBUG: ADDON: cpluff: 'Plug-in script.recentlyadded has been installed.'
  162. 08:14:59 T:4856 M:2987769856   DEBUG: ADDON: cpluff: 'Plug-in screensaver.xbmc.builtin.slideshow has been installed.'
  163. 08:14:59 T:4856 M:2987769856   DEBUG: ADDON: cpluff: 'Plug-in pvr.team-mediaportal.tvserver-tsreader has been installed.'
  164. 08:14:59 T:4856 M:2987769856   DEBUG: ADDON: cpluff: 'Plug-in metadata.common.htbackdrops.com has been installed.'
  165. 08:14:59 T:4856 M:2987769856   DEBUG: ADDON: cpluff: 'Plug-in pvr.team-mediaportal.tvserver has been installed.'
  166. 08:14:59 T:4856 M:2987769856   DEBUG: ADDON: cpluff: 'Plug-in script.rss.editor has been installed.'
  167. 08:14:59 T:4856 M:2987769856   DEBUG: ADDON: cpluff: 'Plug-in metadata.tvdb.com has been installed.'
  168. 08:14:59 T:4856 M:2987769856   DEBUG: ADDON: cpluff: 'Plug-in metadata.common.allmusic.com has been installed.'
  169. 08:14:59 T:4856 M:2987769856   DEBUG: ADDON: cpluff: 'Plug-in weather.xbmc.builtin has been installed.'
  170. 08:14:59 T:4856 M:2987769856   DEBUG: ADDON: cpluff: 'Plug-in metadata.common.last.fm has been installed.'
  171. 08:14:59 T:4856 M:2987769856   DEBUG: ADDON: cpluff: 'Plug-in metadata.common.themoviedb.org has been installed.'
  172. 08:14:59 T:4856 M:2987769856   DEBUG: ADDON: cpluff: 'Plug-in xbmc.python has been installed.'
  173. 08:14:59 T:4856 M:2987769856   DEBUG: ADDON: cpluff: 'Plug-in metadata.common.imdb.com has been installed.'
  174. 08:14:59 T:4856 M:2987769856   DEBUG: ADDON: cpluff: 'Plug-in xbmc.addon has been installed.'
  175. 08:14:59 T:4856 M:2987769856   DEBUG: ADDON: cpluff: 'Plug-in visualization.waveform has been installed.'
  176. 08:14:59 T:4856 M:2987769856   DEBUG: ADDON: cpluff: 'Plug-in screensaver.rsxs.plasma has been installed.'
  177. 08:14:59 T:4856 M:2987769856   DEBUG: ADDON: cpluff: 'Plug-in pvr.hts has been installed.'
  178. 08:14:59 T:4856 M:2987769856   DEBUG: ADDON: cpluff: 'Plug-in script.module.pysqlite has been installed.'
  179. 08:14:59 T:4856 M:2987769856   DEBUG: ADDON: cpluff: 'Plug-in metadata.mtv.com has been installed.'
  180. 08:14:59 T:4856 M:2987769856   DEBUG: ADDON: cpluff: 'Plug-in visualization.itunes has been installed.'
  181. 08:14:59 T:4856 M:2987769856   DEBUG: ADDON: cpluff: 'Plug-in metadata.common.hdtrailers.net has been installed.'
  182. 08:14:59 T:4856 M:2987769856   DEBUG: ADDON: cpluff: 'Not all directories were successfully scanned.'
  183. 08:14:59 T:4560 M:2987769856   DEBUG: thread start, auto delete: 0
  184. 08:14:59 T:4856 M:2988474368   DEBUG: CWinSystemWin32::ResizeInternal - resizing due to size change (0,0,1920,1200 fullscreen)->(0,0,1920,1200 fullscreen)
  185. 08:14:59 T:4856 M:2988474368   DEBUG: CWinEventsWin32::WndProcWindow is active
  186. 08:14:59 T:4856 M:2988478464   DEBUG: CWinEventsWin32::WndProcWindow gained focus
  187. 08:14:59 T:4856 M:2988474368   DEBUG: CRenderSystemDX::InitRenderSystem - trying D3D9Ex...
  188. 08:15:00 T:4856 M:2984534016   DEBUG: CRenderSystemDX::InitRenderSystem - using D3D9Ex
  189. 08:15:00 T:4856 M:2984329216   DEBUG: CRenderSystemDX::CreateDevice on adapter 0
  190. 08:15:00 T:4856 M:2977652736   DEBUG: CRenderSystemDX::CreateDevice - adapter 0: nvd3dum.dll, NVIDIA Quadro NVS 160M , VendorId 4318, DeviceId 1771
  191. 08:15:00 T:4856 M:2977648640   DEBUG: CRenderSystemDX::CreateDevice - using D3DCAPS2_DYNAMICTEXTURES
  192. 08:15:00 T:4856 M:2977648640   DEBUG: CRenderSystemDX::CreateDevice - texture caps: 0x0001ECC5
  193. 08:15:00 T:4856 M:2977644544   DEBUG: CRenderSystemDX::CreateDevice - RENDER_CAPS_DXT
  194. 08:15:00 T:4856 M:2977644544   DEBUG: CRenderSystemDX::CreateDevice - RENDER_CAPS_NPOT
  195. 08:15:00 T:4856 M:2977644544   DEBUG: CRenderSystemDX::CreateDevice - RENDER_CAPS_DXT_NPOT
  196. 08:15:00 T:4856 M:2977644544   DEBUG: CRenderSystemDX::CreateDevice - nVidia workaround - disabling RENDER_CAPS_DXT_NPOT
  197. 08:15:00 T:4856 M:2977636352   DEBUG: CWinSystemWin32::SetFullScreen (windowed fullscreen) on screen 0 with size 1920x1200, refresh 59.940056
  198. 08:15:00 T:4856 M:2977579008    INFO: load default splash image: C:\Program Files (x86)\XBMC\media\Splash.png
  199. 08:15:00 T:4856 M:2977550336   DEBUG: Win32DllLoader::Load(special://xbmcbin/system/ImageLib.dll)
  200. 08:15:00 T:4856 M:2972246016    INFO: load keymapping
  201. 08:15:00 T:4856 M:2968838144    INFO: Loading special://xbmc/system/keymaps/gamepad.xml
  202. 08:15:00 T:4856 M:2968403968    INFO: Loading special://xbmc/system/keymaps/joystick.Alienware.Dual.Compatible.Controller.xml
  203. 08:15:00 T:4856 M:2968395776    INFO: Loading special://xbmc/system/keymaps/joystick.AppleRemote.xml
  204. 08:15:00 T:4856 M:2968383488    INFO: Loading special://xbmc/system/keymaps/joystick.Harmony.xml
  205. 08:15:00 T:4856 M:2968260608    INFO: Loading special://xbmc/system/keymaps/joystick.Interact.AxisPad.xml
  206. 08:15:00 T:4856 M:2968252416    INFO: Loading special://xbmc/system/keymaps/joystick.Logitech.RumblePad.2.xml
  207. 08:15:00 T:4856 M:2968240128    INFO: Loading special://xbmc/system/keymaps/joystick.Microsoft.Xbox.360.Controller.xml
  208. 08:15:00 T:4856 M:2968166400    INFO: Loading special://xbmc/system/keymaps/joystick.Microsoft.Xbox.Controller.S.xml
  209. 08:15:00 T:4856 M:2968141824    INFO: Loading special://xbmc/system/keymaps/joystick.PS3.Remote.Keyboard.xml
  210. 08:15:00 T:4856 M:2968125440    INFO: Loading special://xbmc/system/keymaps/joystick.WiiRemote.xml
  211. 08:15:00 T:4856 M:2968113152    INFO: Loading special://xbmc/system/keymaps/keyboard.xml
  212. 08:15:00 T:4856 M:2968092672    INFO: Loading special://xbmc/system/keymaps/remote.xml
  213. 08:15:00 T:4856 M:2968076288   ERROR: Keymapping error: no such action 'language' defined
  214. 08:15:00 T:4856 M:2968076288    INFO: Loading special://xbmc/system/IRSSmap.xml
  215. 08:15:00 T:4856 M:2968072192    INFO: * Adding remote mapping for device 'Microsoft MCE'
  216. 08:15:00 T:4856 M:2968072192    INFO: * Adding remote mapping for device 'Abstract'
  217. 08:15:00 T:4856 M:2968072192   DEBUG: CButtonTranslator::Load - no userdata IRSSmap.xml found, skipping
  218. 08:15:00 T:4856 M:2968072192    INFO: GUI format 1920x1200 1920x1200 @ 59.94 - Full Screen
  219. 08:15:00 T:4856 M:2968072192  NOTICE: initializing playlistplayer
  220. 08:15:00 T:4856 M:2968072192  NOTICE: DONE initializing playlistplayer
  221. 08:15:00 T:4856 M:2968072192   DEBUG: DPMS: supported power-saving modes: OFF STANDBY
  222. 08:15:00 T:4856 M:2968051712    INFO:   delete old skin...
  223. 08:15:00 T:4856 M:2968010752   DEBUG: ------ Window Deinit (Pointer.xml) ------
  224. 08:15:00 T:4856 M:2968010752   DEBUG: ------ Window Deinit (DialogMuteBug.xml) ------
  225. 08:15:00 T:4856 M:2968010752    INFO:   load skin from:C:\Program Files (x86)\XBMC\addons\skin.confluence
  226. 08:15:00 T:4856 M:2968010752    INFO: Default 4:3 resolution directory is C:\Program Files (x86)\XBMC\addons\skin.confluence\720p
  227. 08:15:00 T:4856 M:2968010752    INFO: Default 16:9 resolution directory is C:\Program Files (x86)\XBMC\addons\skin.confluence\720p
  228. 08:15:00 T:4856 M:2968006656    INFO: Loading skin includes from C:\Program Files (x86)\XBMC\addons\skin.confluence\720p\includes.xml
  229. 08:15:00 T:4856 M:2967465984    INFO:   load fonts for skin...
  230. 08:15:00 T:4856 M:2967449600    INFO: Loading fonts from C:\Program Files (x86)\XBMC\addons\skin.confluence\720p\Font.xml
  231. 08:15:00 T:4856 M:2960928768    INFO:   load new skin...
  232. 08:15:00 T:4856 M:2960928768    INFO: Loading skin file: Home.xml
  233. 08:15:00 T:4856 M:2960871424    INFO: Loading user windows, path C:\Program Files (x86)\XBMC\addons\skin.confluence\720p
  234. 08:15:00 T:4856 M:2960773120   DEBUG: Load Skin XML: 48.16ms
  235. 08:15:00 T:4856 M:2960773120    INFO:   initialize new skin...
  236. 08:15:00 T:4856 M:2960773120    INFO: Loading skin file: Pointer.xml
  237. 08:15:00 T:4856 M:2960642048    INFO: Loading skin file: DialogVolumeBar.xml
  238. 08:15:00 T:4856 M:2960625664    INFO: Loading skin file: DialogSeekBar.xml
  239. 08:15:00 T:4856 M:2960601088    INFO: Loading skin file: DialogKaiToast.xml
  240. 08:15:00 T:4856 M:2960592896    INFO: Loading skin file: DialogMuteBug.xml
  241. 08:15:00 T:4856 M:2960576512   DEBUG: CGUIAudioManager::Initialize
  242. 08:15:00 T:4856 M:2960576512   DEBUG: CAudioContext::SetActiveDevice - SetActiveDevice from 1 to 2
  243. 08:15:00 T:4856 M:2960576512   DEBUG: CAudioContext::RemoveActiveDevice - Removing device 1
  244. 08:15:00 T:4856 M:2960515072   DEBUG: CWDSound::direct_sound_enumerator_member_callback - found Device: Primary Sound Driver
  245. 08:15:00 T:4856 M:2960515072   DEBUG: CWDSound::direct_sound_enumerator_member_callback - found Device: Speakers / Headphones (IDT High Definition Audio CODEC)
  246. 08:15:00 T:4856 M:2960515072   DEBUG: CWDSound::direct_sound_enumerator_member_callback - found Device: Independent (R.T.C.) Headphones (IDT High Definition Audio CODEC)
  247. 08:15:00 T:4856 M:2960515072   DEBUG: CAudioContext::SetActiveDevice - (default playback device).
  248. 08:15:00 T:4856 M:2960494592    INFO: Loading C:\Program Files (x86)\XBMC\addons\skin.confluence\sounds\sounds.xml
  249. 08:15:00 T:4856 M:2960273408    INFO:   skin loaded...
  250. 08:15:00 T:4856 M:2960273408   DEBUG: Activating window ID: 12999
  251. 08:15:00 T:4856 M:2960273408   DEBUG: Checking if window ID 12999 is locked.
  252. 08:15:00 T:4856 M:2960273408   DEBUG: ------ Window Init (Startup.xml) ------
  253. 08:15:00 T:4856 M:2960273408    INFO: Loading skin file: Startup.xml
  254. 08:15:00 T:4856 M:2960265216    INFO: removing tempfiles
  255. 08:15:00 T:4856 M:2960265216  NOTICE: initialize done
  256. 08:15:00 T:4856 M:2960265216  NOTICE: Running the application...
  257. 08:15:00 T:4856 M:2960265216   DEBUG: CApplication::ExecuteXBMCAction : Translating SetFocus(10)
  258. 08:15:00 T:4856 M:2960265216   DEBUG: CApplication::ExecuteXBMCAction : To SetFocus(10)
  259. 08:15:00 T:4856 M:2960265216   DEBUG: XBPython::Process - no profile autoexec.py (C:\Users\idserda\AppData\Roaming\XBMC\userdata\autoexec.py) found, skipping
  260. 08:15:00 T:4856 M:2960265216   DEBUG: CNetwork::NetworkMessage - Starting network services
  261. 08:15:00 T:4856 M:2960265216  NOTICE: ES: Starting event server
  262. 08:15:00 T:4700 M:2960265216   DEBUG: thread start, auto delete: 0
  263. 08:15:00 T:4700 M:2960265216  NOTICE: ES: Starting UDP Event server on 127.0.0.1:9777
  264. 08:15:00 T:4856 M:2960261120   DEBUG: CLastfmScrobbler: Clearing session.
  265. 08:15:00 T:4856 M:2960261120   DEBUG: CLibrefmScrobbler: Clearing session.
  266. 08:15:00 T:4700 M:2960265216  NOTICE: UDP: Listening on port 9777
  267. 08:15:00 T:4904 M:2960265216   DEBUG: thread start, auto delete: 0
  268. 08:15:00 T:4904 M:2960265216    INFO: JSONRPC Server: Successfully initialized
  269. 08:15:00 T:4624 M:2960265216   DEBUG: thread start, auto delete: 1
  270. 08:15:00 T:4856 M:2951557120   DEBUG: CApplication::ExecuteXBMCAction : Translating ReplaceWindow(Home)
  271. 08:15:00 T:4856 M:2951557120   DEBUG: CApplication::ExecuteXBMCAction : To ReplaceWindow(Home)
  272. 08:15:00 T:4856 M:2951557120   DEBUG: Activating window ID: 10000
  273. 08:15:00 T:4856 M:2951557120   DEBUG: Checking if window ID 10000 is locked.
  274. 08:15:00 T:4856 M:2951553024   DEBUG: ------ Window Deinit (Startup.xml) ------
  275. 08:15:00 T:4856 M:2951553024   DEBUG: ------ Window Init (Home.xml) ------
  276. 08:15:00 T:2912 M:2945695744   DEBUG: thread start, auto delete: 1
  277. 08:15:00 T:2824 M:2945691648   DEBUG: thread start, auto delete: 0
  278. 08:15:00 T:2824 M:2945691648   DEBUG: Win32DllLoader::Load(special://xbmcbin/system/libcurl.dll)
  279. 08:15:00 T:4856 M:2936258560   DEBUG: CApplication::ExecuteXBMCAction : Translating SetFocus(9000)
  280. 08:15:00 T:4856 M:2936258560   DEBUG: CApplication::ExecuteXBMCAction : To SetFocus(9000)
  281. 08:15:00 T:2824 M:2934759424   DEBUG: Win32DllLoader::Load(special://xbmcbin/system/libidn-11.dll)
  282. 08:15:00 T:2824 M:2934300672   DEBUG: Win32DllLoader::Load(special://xbmcbin/system/libeay32.dll)
  283. 08:15:00 T:2824 M:2933776384   DEBUG: Win32DllLoader::Load(special://xbmcbin/system/libssl32.dll)
  284. 08:15:00 T:2824 M:2932482048   DEBUG: Win32DllLoader::Load(ADVAPI32.DLL)
  285. 08:15:00 T:2824 M:2932088832   DEBUG: Win32DllLoader::Load(KERNEL32.DLL)
  286. 08:15:00 T:2824 M:2932088832   DEBUG: Win32DllLoader::Load(NETAPI32.DLL)
  287. 08:15:00 T:2824 M:2931372032   DEBUG: FreeLibrary(NETAPI32.DLL) -> 06E53FD0
  288. 08:15:00 T:2824 M:2931372032   DEBUG: Win32DllLoader::Unload NETAPI32.DLL
  289. 08:15:00 T:2824 M:2931396608   DEBUG: FreeLibrary(ADVAPI32.DLL) -> 06E574F0
  290. 08:15:00 T:2824 M:2931396608   DEBUG: Win32DllLoader::Unload ADVAPI32.DLL
  291. 08:15:00 T:2824 M:2931396608   DEBUG: Win32DllLoader::Load(USER32.DLL)
  292. 08:15:00 T:2824 M:2931396608   DEBUG: FreeLibrary(USER32.DLL) -> 06E574F0
  293. 08:15:00 T:2824 M:2931396608   DEBUG: Win32DllLoader::Unload USER32.DLL
  294. 08:15:00 T:4624 M:2927001600   DEBUG: CImageLoader::DoWork - took 194 ms to load special://skin/backgrounds/videos.jpg
  295. 08:15:00 T:2912 M:2930122752   DEBUG: CImageLoader::DoWork - took 110 ms to load special://skin/backgrounds/videos.jpg
  296. 08:15:00 T:2912 M:2930507776    INFO: WEATHER: Downloading weather
  297. 08:15:01 T:2824 M:2931146752   DEBUG: FreeLibrary(KERNEL32.DLL) -> 06E574A0
  298. 08:15:01 T:2824 M:2931146752   DEBUG: Win32DllLoader::Unload KERNEL32.DLL
  299. 08:15:02 T:4856 M:2930929664   DEBUG: SDLKeyboard: scancode: 80, sym: 274, unicode: 0, modifier: 0
  300. 08:15:02 T:4856 M:2930929664   DEBUG: CApplication::OnKey: 61480 pressed, action is Down
  301. 08:15:03 T:4856 M:2930212864   DEBUG: SDLKeyboard: scancode: 80, sym: 274, unicode: 0, modifier: 0
  302. 08:15:03 T:4856 M:2930212864   DEBUG: CApplication::OnKey: 61480 pressed, action is Down
  303. 08:15:03 T:4856 M:2930126848   DEBUG: CApplication::ExecuteXBMCAction : Translating SetFocus(9000)
  304. 08:15:03 T:4856 M:2930126848   DEBUG: CApplication::ExecuteXBMCAction : To SetFocus(9000)
  305. 08:15:03 T:4856 M:2929434624   DEBUG: SDLKeyboard: scancode: 80, sym: 274, unicode: 0, modifier: 0
  306. 08:15:03 T:4856 M:2929434624   DEBUG: CApplication::OnKey: 61480 pressed, action is Down
  307. 08:15:03 T:4624 M:2924171264   DEBUG: CImageLoader::DoWork - took 107 ms to load special://skin/backgrounds/programs.jpg
  308. 08:15:04 T:2824 M:2926784512   DEBUG: Win32DllLoader::Load(secur32.dll)
  309. 08:15:04 T:2912 M:2926751744   DEBUG: FileCurl::Open(0978FCA8) http://xoap.weather.com/weather/local/USNY0996?cc=*&unit=m&dayf=4&prod=xoap&link=xoap&par=1004124588&key=079f24145f208494
  310. 08:15:04 T:2912 M:2926727168    INFO: XCURL::DllLibCurlGlobal::easy_aquire - Created session to http://xoap.weather.com
  311. 08:15:04 T:2824 M:2926637056   DEBUG: FileCurl::Open(099CFCB8) http://feeds.feedburner.com/xbmc
  312. 08:15:04 T:2824 M:2926637056    INFO: XCURL::DllLibCurlGlobal::easy_aquire - Created session to http://feeds.feedburner.com
  313. 08:15:04 T:4856 M:2926624768   DEBUG: SDLKeyboard: scancode: 72, sym: 273, unicode: 0, modifier: 0
  314. 08:15:04 T:4856 M:2926624768   DEBUG: CApplication::OnKey: 61478 pressed, action is Up
  315. 08:15:04 T:2824 M:2926600192   DEBUG: FileCurl::Close(099CFCB8) http://feeds.feedburner.com/xbmc
  316. 08:15:04 T:2824 M:2926600192   DEBUG: Got rss feed: http://feeds.feedburner.com/xbmc
  317. 08:15:04 T:2824 M:2926600192   DEBUG: RSS feed encoding: UTF-8
  318. 08:15:04 T:2824 M:2926600192   DEBUG: Parsed rss feed: http://feeds.feedburner.com/xbmc
  319. 08:15:04 T:2824 M:2926600192   DEBUG: Thread 2824 terminating
  320. 08:15:04 T:2912 M:2926600192   DEBUG: FileCurl::Close(0978FCA8) http://xoap.weather.com/weather/local/USNY0996?cc=*&unit=m&dayf=4&prod=xoap&link=xoap&par=1004124588&key=079f24145f208494
  321. 08:15:04 T:2912 M:2926600192    INFO: WEATHER: Weather download successful
  322. 08:15:04 T:2912 M:2926600192   DEBUG: CZipManager::GetZipList - Processing zip://special%3a%2f%2fxbmc%2fmedia%2fweather%2ezip/
  323. 08:15:04 T:4856 M:2924130304   DEBUG: SDLKeyboard: scancode: 80, sym: 274, unicode: 0, modifier: 0
  324. 08:15:04 T:4856 M:2924130304   DEBUG: CApplication::OnKey: 61480 pressed, action is Down
  325. 08:15:04 T:4856 M:2923823104   DEBUG: SDLKeyboard: scancode: 80, sym: 274, unicode: 0, modifier: 0
  326. 08:15:04 T:4856 M:2923823104   DEBUG: CApplication::OnKey: 61480 pressed, action is Down
  327. 08:15:04 T:4624 M:2921283584   DEBUG: CImageLoader::DoWork - took 117 ms to load special://skin/backgrounds/settings.jpg
  328. 08:15:04 T:4856 M:2922131456   DEBUG: SDLKeyboard: scancode: 28, sym: 13, unicode: 13, modifier: 0
  329. 08:15:04 T:4856 M:2922131456   DEBUG: CApplication::OnKey: 61453 pressed, action is Select
  330. 08:15:04 T:4856 M:2922119168   DEBUG: CApplication::ExecuteXBMCAction : Translating ActivateWindow(Settings)
  331. 08:15:04 T:4856 M:2922119168   DEBUG: CApplication::ExecuteXBMCAction : To ActivateWindow(Settings)
  332. 08:15:04 T:4856 M:2922119168   DEBUG: Activating window ID: 10004
  333. 08:15:04 T:4856 M:2922119168   DEBUG: Checking if window ID 10004 is locked.
  334. 08:15:04 T:4856 M:2922119168   DEBUG: ------ Window Deinit (Home.xml) ------
  335. 08:15:05 T:4856 M:2924371968   DEBUG: ------ Window Init (Settings.xml) ------
  336. 08:15:05 T:4856 M:2924371968    INFO: Loading skin file: Settings.xml
  337. 08:15:05 T:4856 M:2921529344   DEBUG: SDLKeyboard: scancode: 80, sym: 274, unicode: 0, modifier: 0
  338. 08:15:05 T:4856 M:2921529344   DEBUG: CApplication::OnKey: 61480 pressed, action is Down
  339. 08:15:06 T:4856 M:2921525248   DEBUG: SDLKeyboard: scancode: 80, sym: 274, unicode: 0, modifier: 0
  340. 08:15:06 T:4856 M:2921525248   DEBUG: CApplication::OnKey: 61480 pressed, action is Down
  341. 08:15:06 T:4624 M:2918670336   DEBUG: CImageLoader::DoWork - took 118 ms to load special://skin/backgrounds/tv.jpg
  342. 08:15:06 T:4856 M:2920951808   DEBUG: SDLKeyboard: scancode: 28, sym: 13, unicode: 13, modifier: 0
  343. 08:15:06 T:4856 M:2920951808   DEBUG: CApplication::OnKey: 61453 pressed, action is Select
  344. 08:15:06 T:4856 M:2920939520   DEBUG: CApplication::ExecuteXBMCAction : Translating ActivateWindow(MyTVSettings)
  345. 08:15:06 T:4856 M:2920939520   DEBUG: CApplication::ExecuteXBMCAction : To ActivateWindow(MyTVSettings)
  346. 08:15:06 T:4856 M:2920939520   DEBUG: Activating window ID: 10020
  347. 08:15:06 T:4856 M:2920939520   DEBUG: Checking if window ID 10020 is locked.
  348. 08:15:06 T:4856 M:2920939520   DEBUG: ------ Window Deinit (Settings.xml) ------
  349. 08:15:06 T:4856 M:2920939520   DEBUG: ------ Window Init (SettingsCategory.xml) ------
  350. 08:15:06 T:4856 M:2920939520    INFO: Loading skin file: SettingsCategory.xml
  351. 08:15:07 T:4856 M:2945015808   DEBUG: SDLKeyboard: scancode: 77, sym: 275, unicode: 0, modifier: 0
  352. 08:15:07 T:4856 M:2945015808   DEBUG: CApplication::OnKey: 61479 pressed, action is Right
  353. 08:15:07 T:4856 M:2946134016   DEBUG: SDLKeyboard: scancode: 28, sym: 13, unicode: 13, modifier: 0
  354. 08:15:07 T:4856 M:2946134016   DEBUG: CApplication::OnKey: 61453 pressed, action is Select
  355. 08:15:07 T:4856 M:2946121728    INFO: starting PVRManager
  356. 08:15:07 T:4856 M:2946121728  NOTICE: PVR: PVRManager starting
  357. 08:15:07 T:4856 M:2946105344   DEBUG: PVR: VDR Streamdev Client - Creating PVR-Client AddOn
  358. 08:15:07 T:4856 M:2946105344   DEBUG: ADDON: Dll Initializing - VDR Streamdev Client
  359. 08:15:07 T:4856 M:2946101248   DEBUG: Win32DllLoader::Load(C:\Program Files (x86)\XBMC\addons\pvr.vdr.streamdev\XBMC_VDR_WIN32.pvr)
  360. 08:15:07 T:4856 M:2946019328   DEBUG: Win32DllLoader::Load(pthreadVC2.dll)
  361. 08:15:07 T:4856 M:2946019328   DEBUG: LoadLibraryExA called with flags:
  362.                                              - LOAD_WITH_ALTERED_SEARCH_PATH
  363. 08:15:07 T:4856 M:2946019328   DEBUG: Win32DllLoader::Load(C:\Program Files (x86)\XBMC\addons\library.xbmc.addon\libXBMC_addon.dll)
  364. 08:15:07 T:4856 M:2946002944   DEBUG: LoadLibraryExA called with flags:
  365.                                              - LOAD_WITH_ALTERED_SEARCH_PATH
  366. 08:15:07 T:4856 M:2945998848   DEBUG: Win32DllLoader::Load(C:\Program Files (x86)\XBMC\addons\library.xbmc.pvr\libXBMC_pvr.dll)
  367. 08:15:07 T:4856 M:2945982464   DEBUG: AddOnLog: xbmc.pvrclient/VDR Streamdev Client: Creating VDR PVR-Client
  368. 08:15:07 T:4856 M:2945982464   DEBUG: CAddonHelpers_Addon: AddOn VDR Streamdev Client request Setting host
  369. 08:15:07 T:4856 M:2945966080   DEBUG: CAddonHelpers_Addon: AddOn VDR Streamdev Client request Setting port
  370. 08:15:07 T:4856 M:2945966080   DEBUG: CAddonHelpers_Addon: AddOn VDR Streamdev Client request Setting priority
  371. 08:15:07 T:4856 M:2945966080   DEBUG: CAddonHelpers_Addon: AddOn VDR Streamdev Client request Setting ftaonly
  372. 08:15:07 T:4856 M:2945966080   DEBUG: CAddonHelpers_Addon: AddOn VDR Streamdev Client request Setting useradio
  373. 08:15:07 T:4856 M:2945966080   DEBUG: CAddonHelpers_Addon: AddOn VDR Streamdev Client request Setting convertchar
  374. 08:15:07 T:4856 M:2945966080   DEBUG: CAddonHelpers_Addon: AddOn VDR Streamdev Client request Setting timeout
  375. 08:15:07 T:4856 M:2945966080   DEBUG: CAddonHelpers_Addon: AddOn VDR Streamdev Client request Setting ignorechannels
  376. 08:15:07 T:4856 M:2945966080   DEBUG: CAddonHelpers_Addon: AddOn VDR Streamdev Client request Setting handlemessages
  377. 08:15:07 T:4856 M:2945966080   DEBUG: CAddonHelpers_Addon: AddOn VDR Streamdev Client request Setting usedirectory